Time;durP1;ratioP1;P1;durP2;ratioP2;P2;SDS_P1;SDS_P2;PMS_P1;PMS_P2;Temp;Humidity;BMP_temperature;BMP_pressure;BME280_temperature;BME280_humidity;BME280_pressure;Samples;Min_cycle;Max_cycle;Signal;HPM_P1;HPM_P2
2022/09/03 00:01:06;;;;;;;11.50;2.97;;;;;;;;;;5002365;28;20530;-66
2022/09/03 00:03:42;;;;;;;10.85;3.17;;;;;;;;;;5005889;28;20228;-65
2022/09/03 00:06:16;;;;;;;12.80;3.35;;;;;;;;;;5005530;28;20526;-66
2022/09/03 00:08:53;;;;;;;13.63;3.95;;;;;;;;;;4998482;28;20554;-65
2022/09/03 00:11:22;;;;;;;11.77;2.80;;;;;;;;;;5005345;28;20316;-67
2022/09/03 00:13:58;;;;;;;13.32;2.50;;;;;;;;;;5001408;28;20021;-66
2022/09/03 00:16:26;;;;;;;13.65;3.08;;;;;;;;;;5003421;28;20057;-66
2022/09/03 00:18:55;;;;;;;12.13;2.70;;;;;;;;;;5007423;28;20049;-67
2022/09/03 00:21:42;;;;;;;10.65;2.50;;;;;;;;;;5002695;28;20088;-66
2022/09/03 00:24:11;;;;;;;9.60;2.63;;;;;;;;;;4999984;28;20408;-66
2022/09/03 00:26:40;;;;;;;11.80;2.47;;;;;;;;;;5009750;28;20100;-67
2022/09/03 00:29:09;;;;;;;8.73;2.40;;;;;;;;;;5008909;28;20388;-66
2022/09/03 00:31:37;;;;;;;8.80;2.42;;;;;;;;;;5003760;28;20104;-66
2022/09/03 00:34:12;;;;;;;8.82;2.08;;;;;;;;;;4997416;28;20029;-65
2022/09/03 00:36:44;;;;;;;9.10;2.33;;;;;;;;;;5007613;28;20032;-66
2022/09/03 00:39:21;;;;;;;9.95;2.38;;;;;;;;;;5011982;28;20115;-65
2022/09/03 00:42:06;;;;;;;10.05;2.40;;;;;;;;;;4996271;28;20641;-65
2022/09/03 00:44:33;;;;;;;8.82;2.40;;;;;;;;;;5006206;28;20431;-65
2022/09/03 00:47:26;;;;;;;10.65;2.30;;;;;;;;;;5005028;28;20045;-65
2022/09/03 00:50:14;;;;;;;12.88;2.67;;;;;;;;;;4942816;28;20042;-65
2022/09/03 00:52:49;;;;;;;9.32;2.50;;;;;;;;;;4938276;28;20062;-65
2022/09/03 00:55:42;;;;;;;9.35;2.40;;;;;;;;;;4943203;28;20422;-66
2022/09/03 00:58:17;;;;;;;7.85;2.20;;;;;;;;;;4929753;28;20220;-66
2022/09/03 01:00:44;;;;;;;9.02;2.35;;;;;;;;;;4938155;28;20042;-65
2022/09/03 01:03:10;;;;;;;8.32;2.50;;;;;;;;;;4948812;28;20488;-66
2022/09/03 01:05:53;;;;;;;10.02;2.92;;;;;;;;;;4948116;28;20416;-65
2022/09/03 01:08:25;;;;;;;11.25;2.38;;;;;;;;;;4949751;28;20055;-65
2022/09/03 01:10:57;;;;;;;7.68;1.90;;;;;;;;;;4938140;28;20031;-66
2022/09/03 01:13:58;;;;;;;9.25;2.17;;;;;;;;;;4950027;28;20065;-66
2022/09/03 01:16:30;;;;;;;6.60;2.25;;;;;;;;;;4908171;29;20515;-64
2022/09/03 01:19:02;;;;;;;6.55;1.75;;;;;;;;;;4905185;29;20348;-65
2022/09/03 01:21:47;;;;;;;6.65;2.03;;;;;;;;;;4911990;29;20482;-66
2022/09/03 01:24:32;;;;;;;7.22;1.98;;;;;;;;;;4913829;29;20084;-66
2022/09/03 01:27:04;;;;;;;9.82;2.13;;;;;;;;;;4933412;28;20046;-65
2022/09/03 01:29:36;;;;;;;9.63;2.10;;;;;;;;;;4946326;28;20038;-65
2022/09/03 01:32:19;;;;;;;6.32;1.98;;;;;;;;;;4938936;28;20154;-66
2022/09/03 01:34:52;;;;;;;10.00;2.25;;;;;;;;;;4927938;28;20039;-65
2022/09/03 01:37:37;;;;;;;12.48;2.90;;;;;;;;;;4952315;28;20073;-67
2022/09/03 01:40:06;;;;;;;7.63;2.17;;;;;;;;;;4945568;28;20035;-66
2022/09/03 01:42:32;;;;;;;7.38;2.08;;;;;;;;;;4947544;28;20565;-67
2022/09/03 01:45:07;;;;;;;8.18;2.28;;;;;;;;;;4947346;28;20046;-66
2022/09/03 01:47:52;;;;;;;9.37;2.27;;;;;;;;;;4948688;28;20133;-65
2022/09/03 01:50:25;;;;;;;9.98;2.50;;;;;;;;;;4978561;28;20848;-65
2022/09/03 01:52:52;;;;;;;7.63;2.20;;;;;;;;;;5010285;28;20471;-65
2022/09/03 01:55:21;;;;;;;8.07;2.50;;;;;;;;;;5031235;28;20106;-65
2022/09/03 01:57:49;;;;;;;12.07;2.63;;;;;;;;;;5025947;28;20033;-66
2022/09/03 02:00:19;;;;;;;9.88;2.75;;;;;;;;;;5011707;28;20072;-65
2022/09/03 02:02:46;;;;;;;11.93;2.65;;;;;;;;;;5030817;28;20039;-65
2022/09/03 02:05:16;;;;;;;7.60;2.50;;;;;;;;;;5029980;28;20036;-65
2022/09/03 02:07:44;;;;;;;8.30;2.50;;;;;;;;;;5022145;28;20276;-65
2022/09/03 02:10:21;;;;;;;9.25;2.33;;;;;;;;;;5020934;28;20029;-65
2022/09/03 02:12:55;;;;;;;8.02;2.08;;;;;;;;;;5017377;28;20045;-65
2022/09/03 02:15:22;;;;;;;8.82;2.20;;;;;;;;;;5030084;28;20021;-65
2022/09/03 02:17:50;;;;;;;9.80;2.10;;;;;;;;;;5028451;28;20025;-65
2022/09/03 02:20:21;;;;;;;7.57;2.00;;;;;;;;;;5033606;28;20060;-65
2022/09/03 02:22:48;;;;;;;8.23;2.03;;;;;;;;;;5026170;28;20094;-66
2022/09/03 02:25:15;;;;;;;8.68;2.50;;;;;;;;;;5008811;28;20046;-66
2022/09/03 02:27:41;;;;;;;8.93;2.40;;;;;;;;;;5029300;28;20056;-66
2022/09/03 02:30:08;;;;;;;9.00;2.03;;;;;;;;;;5028361;28;20069;-66
2022/09/03 02:32:34;;;;;;;7.43;2.25;;;;;;;;;;5010552;28;20021;-65
2022/09/03 02:35:00;;;;;;;8.38;2.10;;;;;;;;;;5024289;28;20029;-67
2022/09/03 02:37:26;;;;;;;6.55;1.83;;;;;;;;;;5031218;28;20497;-66
2022/09/03 02:39:53;;;;;;;7.03;2.10;;;;;;;;;;5007560;28;20112;-65
2022/09/03 02:42:19;;;;;;;8.20;2.20;;;;;;;;;;5009540;28;20029;-66
2022/09/03 02:44:51;;;;;;;10.70;2.25;;;;;;;;;;5025779;28;20033;-65
2022/09/03 02:47:19;;;;;;;8.00;2.22;;;;;;;;;;5015562;28;20116;-65
2022/09/03 02:49:47;;;;;;;9.55;1.90;;;;;;;;;;5008331;28;20566;-65
2022/09/03 02:52:13;;;;;;;8.32;2.05;;;;;;;;;;5036777;28;20137;-66
2022/09/03 02:54:39;;;;;;;10.15;2.22;;;;;;;;;;5017147;28;20032;-65
2022/09/03 02:57:09;;;;;;;11.25;2.25;;;;;;;;;;5011121;28;20358;-66
2022/09/03 02:59:35;;;;;;;7.93;2.00;;;;;;;;;;5018292;28;20431;-66
2022/09/03 03:02:02;;;;;;;7.65;1.95;;;;;;;;;;5029752;28;20078;-66
2022/09/03 03:04:29;;;;;;;9.95;2.08;;;;;;;;;;5010712;28;20591;-67
2022/09/03 03:06:55;;;;;;;10.63;2.25;;;;;;;;;;5023411;28;20539;-65
2022/09/03 03:09:22;;;;;;;8.10;2.40;;;;;;;;;;5025819;28;20086;-66
2022/09/03 03:11:49;;;;;;;7.93;1.90;;;;;;;;;;5009888;28;20554;-66
2022/09/03 03:14:15;;;;;;;9.50;2.03;;;;;;;;;;5029380;28;20433;-65
2022/09/03 03:16:42;;;;;;;8.95;2.33;;;;;;;;;;5014507;28;20039;-66
2022/09/03 03:19:08;;;;;;;7.40;1.77;;;;;;;;;;5032486;28;20777;-66
2022/09/03 03:21:34;;;;;;;8.82;1.92;;;;;;;;;;5035221;28;20031;-66
2022/09/03 03:24:01;;;;;;;6.50;1.77;;;;;;;;;;5008959;28;22758;-66
2022/09/03 03:26:27;;;;;;;11.50;2.35;;;;;;;;;;5016940;28;20032;-66
2022/09/03 03:28:58;;;;;;;8.80;2.00;;;;;;;;;;5008685;28;20036;-65
2022/09/03 03:31:24;;;;;;;9.52;1.98;;;;;;;;;;5033170;28;20039;-65
2022/09/03 03:33:57;;;;;;;11.35;2.30;;;;;;;;;;5007561;28;20112;-65
2022/09/03 03:36:25;;;;;;;9.50;2.30;;;;;;;;;;5036254;28;20025;-66
2022/09/03 03:38:55;;;;;;;9.32;2.05;;;;;;;;;;5028326;28;20029;-65
2022/09/03 03:41:23;;;;;;;10.38;2.28;;;;;;;;;;5010022;28;20462;-65
2022/09/03 03:43:53;;;;;;;9.80;2.30;;;;;;;;;;5025276;28;20033;-66
2022/09/03 03:46:20;;;;;;;8.95;2.20;;;;;;;;;;5026929;28;20064;-65
2022/09/03 03:48:50;;;;;;;10.95;2.60;;;;;;;;;;5019990;28;20028;-65
2022/09/03 03:51:16;;;;;;;7.57;2.20;;;;;;;;;;5022684;28;20586;-65
2022/09/03 03:53:42;;;;;;;11.60;2.25;;;;;;;;;;5030844;28;20060;-66
2022/09/03 03:56:10;;;;;;;10.13;2.13;;;;;;;;;;5007310;28;20036;-65
2022/09/03 03:58:36;;;;;;;9.60;2.15;;;;;;;;;;5028093;28;20092;-65
2022/09/03 04:01:06;;;;;;;8.48;1.98;;;;;;;;;;5021754;28;20044;-65
2022/09/03 04:03:33;;;;;;;11.18;2.17;;;;;;;;;;5008762;28;20029;-66
2022/09/03 04:05:59;;;;;;;8.05;2.30;;;;;;;;;;5019862;28;20171;-66
2022/09/03 04:08:28;;;;;;;9.20;2.60;;;;;;;;;;5028061;28;20013;-64
2022/09/03 04:10:54;;;;;;;8.32;2.03;;;;;;;;;;5009215;28;20032;-65
2022/09/03 04:13:20;;;;;;;8.38;2.20;;;;;;;;;;5028280;28;20063;-66
2022/09/03 04:15:46;;;;;;;9.02;2.38;;;;;;;;;;5028386;28;20036;-65
2022/09/03 04:18:13;;;;;;;8.80;2.13;;;;;;;;;;5015224;28;20082;-65
2022/09/03 04:20:39;;;;;;;26.75;4.50;;;;;;;;;;5032598;28;20115;-66
2022/09/03 04:23:05;;;;;;;41.80;6.90;;;;;;;;;;5029070;28;20044;-65
2022/09/03 04:25:32;;;;;;;14.50;3.20;;;;;;;;;;5029622;28;20040;-66
2022/09/03 04:27:58;;;;;;;15.13;2.92;;;;;;;;;;5007784;28;20503;-66
2022/09/03 04:30:26;;;;;;;10.40;2.50;;;;;;;;;;5016295;28;20322;-66
2022/09/03 04:32:52;;;;;;;14.50;2.85;;;;;;;;;;5003057;28;20435;-66
2022/09/03 04:35:23;;;;;;;13.68;2.90;;;;;;;;;;5013480;28;20384;-67
2022/09/03 04:37:49;;;;;;;11.75;2.63;;;;;;;;;;5025457;28;20103;-66
2022/09/03 04:40:15;;;;;;;9.95;2.65;;;;;;;;;;5025459;28;20125;-66
2022/09/03 04:42:41;;;;;;;11.38;3.03;;;;;;;;;;5029293;28;20823;-65
2022/09/03 04:45:08;;;;;;;10.45;2.40;;;;;;;;;;5022578;28;20038;-66
2022/09/03 04:47:36;;;;;;;11.52;2.50;;;;;;;;;;5032540;28;20084;-67
2022/09/03 04:50:02;;;;;;;10.85;2.47;;;;;;;;;;5023671;28;20613;-67
2022/09/03 04:52:30;;;;;;;12.75;2.50;;;;;;;;;;5008494;28;20045;-65
2022/09/03 04:54:56;;;;;;;7.53;2.20;;;;;;;;;;5002013;28;20029;-66
2022/09/03 04:57:23;;;;;;;13.90;2.80;;;;;;;;;;5008663;28;20032;-65
2022/09/03 04:59:49;;;;;;;10.70;2.47;;;;;;;;;;5006997;28;20112;-66
2022/09/03 05:02:15;;;;;;;12.70;2.83;;;;;;;;;;5013458;28;20029;-65
2022/09/03 05:04:42;;;;;;;13.65;2.80;;;;;;;;;;5012233;28;20574;-65
2022/09/03 05:07:08;;;;;;;10.05;2.42;;;;;;;;;;5014827;28;20040;-67
2022/09/03 05:09:35;;;;;;;13.50;3.15;;;;;;;;;;5013517;28;20029;-65
2022/09/03 05:12:01;;;;;;;12.68;2.90;;;;;;;;;;5011312;28;20037;-66
2022/09/03 05:14:27;;;;;;;13.82;3.15;;;;;;;;;;5014571;28;20086;-66
2022/09/03 05:16:53;;;;;;;13.00;2.92;;;;;;;;;;5007948;28;20021;-65
2022/09/03 05:19:19;;;;;;;11.35;2.60;;;;;;;;;;5012232;28;20364;-67
2022/09/03 05:21:45;;;;;;;12.52;3.15;;;;;;;;;;5012716;28;20030;-66
2022/09/03 05:24:11;;;;;;;10.95;2.83;;;;;;;;;;5008389;28;20171;-66
2022/09/03 05:26:38;;;;;;;12.25;2.65;;;;;;;;;;5007466;28;20036;-66
2022/09/03 05:29:08;;;;;;;15.02;2.80;;;;;;;;;;5007872;28;20678;-67
2022/09/03 05:31:36;;;;;;;11.30;2.58;;;;;;;;;;5014074;28;20025;-65
2022/09/03 05:34:03;;;;;;;14.13;2.72;;;;;;;;;;5003810;28;20088;-64
2022/09/03 05:36:31;;;;;;;13.13;2.83;;;;;;;;;;5012720;28;20025;-65
2022/09/03 05:38:58;;;;;;;9.55;2.53;;;;;;;;;;5005470;28;20045;-64
2022/09/03 05:41:24;;;;;;;12.23;2.60;;;;;;;;;;5009851;28;20478;-65
2022/09/03 05:43:54;;;;;;;10.77;2.20;;;;;;;;;;5008411;28;20033;-65
2022/09/03 05:46:25;;;;;;;11.20;2.60;;;;;;;;;;5007804;28;20449;-65
2022/09/03 05:48:51;;;;;;;10.82;2.75;;;;;;;;;;5009390;28;20029;-65
2022/09/03 05:51:18;;;;;;;14.70;3.35;;;;;;;;;;5009006;28;20410;-64
2022/09/03 05:53:46;;;;;;;10.25;3.05;;;;;;;;;;5026958;28;20104;-65
2022/09/03 05:56:16;;;;;;;11.40;3.75;;;;;;;;;;5033173;28;20036;-65
2022/09/03 05:58:44;;;;;;;12.05;3.17;;;;;;;;;;5027631;28;20060;-65
2022/09/03 06:01:19;;;;;;;12.50;3.70;;;;;;;;;;5032042;28;20024;-66
2022/09/03 06:03:47;;;;;;;10.68;3.38;;;;;;;;;;5027984;28;20043;-66
2022/09/03 06:06:14;;;;;;;12.82;3.28;;;;;;;;;;5031126;28;20028;-66
2022/09/03 06:08:41;;;;;;;15.80;3.28;;;;;;;;;;5038805;28;20088;-66
2022/09/03 06:11:08;;;;;;;11.55;2.80;;;;;;;;;;5026667;28;20118;-66
2022/09/03 06:13:34;;;;;;;12.82;2.90;;;;;;;;;;5026815;28;21351;-66
2022/09/03 06:16:02;;;;;;;9.45;2.25;;;;;;;;;;5025899;28;21737;-66
2022/09/03 06:18:28;;;;;;;13.82;2.65;;;;;;;;;;5014830;28;20384;-66
2022/09/03 06:21:02;;;;;;;8.65;2.47;;;;;;;;;;5029168;28;20437;-66
2022/09/03 06:23:29;;;;;;;9.77;2.30;;;;;;;;;;5036307;28;20128;-66
2022/09/03 06:26:08;;;;;;;11.70;2.67;;;;;;;;;;5025065;28;20028;-63
2022/09/03 06:28:36;;;;;;;15.35;2.90;;;;;;;;;;5026962;28;20036;-64
2022/09/03 06:31:06;;;;;;;14.98;3.13;;;;;;;;;;5003487;28;20026;-64
2022/09/03 06:33:33;;;;;;;14.43;3.10;;;;;;;;;;5031774;28;20692;-65
2022/09/03 06:36:00;;;;;;;12.00;3.10;;;;;;;;;;5023010;28;20439;-65
2022/09/03 06:38:28;;;;;;;11.90;2.92;;;;;;;;;;5010878;28;20024;-65
2022/09/03 06:40:55;;;;;;;11.77;3.17;;;;;;;;;;5025519;28;20024;-65
2022/09/03 06:43:22;;;;;;;14.90;3.00;;;;;;;;;;5015729;28;20032;-65
2022/09/03 06:45:58;;;;;;;13.10;3.13;;;;;;;;;;5023851;28;20037;-65
2022/09/03 06:48:24;;;;;;;16.58;2.75;;;;;;;;;;5021216;28;20112;-66
2022/09/03 06:51:17;;;;;;;11.73;2.58;;;;;;;;;;5022857;28;20035;-66
2022/09/03 06:53:44;;;;;;;13.73;3.03;;;;;;;;;;5004093;28;20650;-65
2022/09/03 06:56:12;;;;;;;12.30;2.88;;;;;;;;;;5001420;28;20056;-65
2022/09/03 06:58:41;;;;;;;14.90;3.33;;;;;;;;;;5016132;28;20040;-66
2022/09/03 07:01:09;;;;;;;12.95;3.05;;;;;;;;;;5004014;28;20482;-67
2022/09/03 07:03:36;;;;;;;10.48;3.00;;;;;;;;;;5018523;28;20523;-67
2022/09/03 07:06:05;;;;;;;13.18;3.10;;;;;;;;;;5031279;28;20380;-66
2022/09/03 07:08:32;;;;;;;13.38;2.85;;;;;;;;;;5030412;28;20025;-67
2022/09/03 07:11:05;;;;;;;12.18;3.10;;;;;;;;;;5004720;28;20444;-65
2022/09/03 07:13:32;;;;;;;12.57;3.47;;;;;;;;;;5030701;28;20109;-65
2022/09/03 07:16:08;;;;;;;15.23;3.80;;;;;;;;;;5010492;28;20063;-65
2022/09/03 07:18:35;;;;;;;11.80;3.15;;;;;;;;;;5028993;28;20055;-65
2022/09/03 07:21:05;;;;;;;13.75;3.05;;;;;;;;;;5023718;28;22069;-65
2022/09/03 07:23:31;;;;;;;12.05;3.40;;;;;;;;;;5031313;28;20041;-65
2022/09/03 07:26:01;;;;;;;19.45;3.42;;;;;;;;;;5030243;28;20159;-65
2022/09/03 07:28:29;;;;;;;16.20;3.40;;;;;;;;;;5011358;28;20359;-66
2022/09/03 07:31:00;;;;;;;14.02;3.45;;;;;;;;;;5020841;28;20063;-66
2022/09/03 07:33:28;;;;;;;13.50;3.40;;;;;;;;;;5009558;28;20033;-66
2022/09/03 07:35:54;;;;;;;11.73;2.80;;;;;;;;;;5024582;28;20410;-66
2022/09/03 07:38:22;;;;;;;14.23;3.25;;;;;;;;;;5031288;28;20131;-66
2022/09/03 07:40:48;;;;;;;13.35;2.80;;;;;;;;;;5021117;28;20025;-66
2022/09/03 07:43:15;;;;;;;11.38;2.60;;;;;;;;;;5024771;28;20485;-66
2022/09/03 07:45:42;;;;;;;11.70;2.95;;;;;;;;;;5020487;28;20028;-66
2022/09/03 07:48:09;;;;;;;17.63;3.10;;;;;;;;;;5010194;28;20040;-66
2022/09/03 07:50:38;;;;;;;13.77;3.50;;;;;;;;;;5009755;28;20577;-66
2022/09/03 07:53:04;;;;;;;15.25;3.22;;;;;;;;;;5021772;28;20052;-66
2022/09/03 07:55:30;;;;;;;14.57;3.00;;;;;;;;;;5021568;28;20296;-66
2022/09/03 07:57:58;;;;;;;16.48;3.25;;;;;;;;;;5018753;28;20524;-65
2022/09/03 08:00:24;;;;;;;12.82;3.22;;;;;;;;;;4989072;28;20364;-67
2022/09/03 08:02:54;;;;;;;12.27;3.22;;;;;;;;;;4992400;28;20415;-67
2022/09/03 08:05:21;;;;;;;15.73;3.30;;;;;;;;;;5009636;28;20472;-66
2022/09/03 08:07:48;;;;;;;14.02;3.08;;;;;;;;;;5000059;28;20471;-66
2022/09/03 08:10:15;;;;;;;15.40;3.35;;;;;;;;;;5022573;28;20533;-67
2022/09/03 08:12:41;;;;;;;13.27;2.80;;;;;;;;;;5025558;28;20355;-65
2022/09/03 08:15:07;;;;;;;12.10;3.28;;;;;;;;;;5024634;28;20021;-65
2022/09/03 08:17:33;;;;;;;13.38;2.90;;;;;;;;;;5025243;28;20061;-66
2022/09/03 08:20:00;;;;;;;13.77;3.03;;;;;;;;;;5023748;28;20033;-66
2022/09/03 08:22:27;;;;;;;10.32;2.70;;;;;;;;;;5022101;28;20028;-65
2022/09/03 08:24:54;;;;;;;16.27;2.92;;;;;;;;;;5020783;28;20052;-66
2022/09/03 08:27:24;;;;;;;13.30;2.97;;;;;;;;;;5029534;28;20079;-66
2022/09/03 08:29:50;;;;;;;17.08;3.65;;;;;;;;;;5026689;28;20029;-66
2022/09/03 08:32:16;;;;;;;15.88;2.72;;;;;;;;;;5036561;28;20712;-65
2022/09/03 08:34:42;;;;;;;16.42;3.25;;;;;;;;;;5027732;28;20028;-65
2022/09/03 08:37:09;;;;;;;13.23;3.63;;;;;;;;;;5001625;28;20391;-65
2022/09/03 08:39:35;;;;;;;18.35;3.28;;;;;;;;;;5008989;28;20021;-65
2022/09/03 08:42:10;;;;;;;14.73;3.40;;;;;;;;;;4995498;28;20067;-66
2022/09/03 08:44:39;;;;;;;14.48;3.25;;;;;;;;;;5001745;28;20461;-66
2022/09/03 08:47:09;;;;;;;13.27;3.20;;;;;;;;;;4995667;28;20037;-65
2022/09/03 08:49:36;;;;;;;11.80;3.05;;;;;;;;;;4995494;28;20138;-65
2022/09/03 08:52:05;;;;;;;18.65;3.33;;;;;;;;;;5001557;28;20061;-65
2022/09/03 08:54:32;;;;;;;18.85;3.22;;;;;;;;;;5011812;28;20364;-65
2022/09/03 08:57:00;;;;;;;18.60;3.60;;;;;;;;;;4999949;28;20392;-65
2022/09/03 08:59:27;;;;;;;14.30;2.83;;;;;;;;;;5000589;28;20028;-66
2022/09/03 09:01:59;;;;;;;14.43;2.97;;;;;;;;;;4995920;28;20070;-66
2022/09/03 09:04:40;;;;;;;10.13;2.60;;;;;;;;;;5005159;28;20080;-65
2022/09/03 09:07:18;;;;;;;16.13;3.03;;;;;;;;;;5017932;28;20039;-66
2022/09/03 09:09:55;;;;;;;14.02;3.05;;;;;;;;;;4985012;28;20512;-66
2022/09/03 09:12:37;;;;;;;17.85;3.10;;;;;;;;;;5001643;28;20040;-66
2022/09/03 09:15:09;;;;;;;14.48;3.33;;;;;;;;;;5030045;28;20063;-64
2022/09/03 09:17:35;;;;;;;18.15;3.85;;;;;;;;;;5018125;28;20394;-64
2022/09/03 09:20:09;;;;;;;13.65;2.83;;;;;;;;;;5031477;28;20036;-64
2022/09/03 09:22:40;;;;;;;11.13;2.88;;;;;;;;;;5033461;28;20497;-65
2022/09/03 09:25:13;;;;;;;12.13;2.95;;;;;;;;;;5034045;28;20029;-65
2022/09/03 09:27:41;;;;;;;15.27;2.72;;;;;;;;;;5031049;28;20029;-65
2022/09/03 09:30:07;;;;;;;14.57;3.03;;;;;;;;;;5031269;28;20025;-65
2022/09/03 09:32:37;;;;;;;15.80;3.20;;;;;;;;;;5017314;28;20461;-65
2022/09/03 09:35:07;;;;;;;12.88;2.63;;;;;;;;;;5023306;28;20460;-65
2022/09/03 09:37:34;;;;;;;13.43;2.63;;;;;;;;;;5011285;28;20478;-65
2022/09/03 09:40:00;;;;;;;13.73;3.00;;;;;;;;;;5028699;28;20491;-66
2022/09/03 09:42:29;;;;;;;12.68;2.90;;;;;;;;;;5014110;28;20033;-65
2022/09/03 09:44:55;;;;;;;15.73;3.35;;;;;;;;;;5027422;28;20032;-64
2022/09/03 09:47:35;;;;;;;14.25;2.80;;;;;;;;;;5026825;28;20135;-65
2022/09/03 09:50:02;;;;;;;14.88;2.85;;;;;;;;;;5008778;28;20033;-65
2022/09/03 09:52:30;;;;;;;17.98;3.28;;;;;;;;;;5011475;28;20059;-64
2022/09/03 09:55:09;;;;;;;14.38;2.97;;;;;;;;;;5023443;28;20457;-64
2022/09/03 09:57:37;;;;;;;15.35;2.83;;;;;;;;;;5032801;28;20182;-64
2022/09/03 10:00:11;;;;;;;15.32;2.70;;;;;;;;;;5027078;28;20433;-65
2022/09/03 10:02:41;;;;;;;13.10;2.47;;;;;;;;;;5028622;28;20032;-66
2022/09/03 10:05:13;;;;;;;12.45;2.63;;;;;;;;;;5030321;28;20020;-65
2022/09/03 10:07:39;;;;;;;10.48;2.28;;;;;;;;;;5013220;28;20093;-65
2022/09/03 10:10:07;;;;;;;15.65;2.60;;;;;;;;;;5035055;28;20024;-65
2022/09/03 10:12:43;;;;;;;16.02;2.70;;;;;;;;;;5036128;28;20032;-65
2022/09/03 10:15:09;;;;;;;;;;;;;;;;;;5035929;28;20131;-65
2022/09/03 10:17:42;;;;;;;13.02;2.55;;;;;;;;;;5013482;28;20017;-66
2022/09/03 10:20:32;;;;;;;10.18;2.40;;;;;;;;;;5018389;28;20390;-65
2022/09/03 10:23:04;;;;;;;13.15;2.38;;;;;;;;;;5029691;28;20032;-66
2022/09/03 10:25:59;;;;;;;13.18;2.47;;;;;;;;;;5031372;28;20466;-65
2022/09/03 10:28:26;;;;;;;12.85;2.50;;;;;;;;;;5011272;28;20119;-66
2022/09/03 10:31:12;;;;;;;12.05;2.60;;;;;;;;;;5029474;28;20391;-64
2022/09/03 10:34:01;;;;;;;14.93;2.40;;;;;;;;;;5032220;28;20036;-64
2022/09/03 10:36:28;;;;;;;15.15;2.47;;;;;;;;;;5020505;28;20083;-65
2022/09/03 10:39:15;;;;;;;11.77;2.15;;;;;;;;;;5025828;28;20032;-66
2022/09/03 10:42:02;;;;;;;10.05;2.05;;;;;;;;;;5009571;28;20110;-65
2022/09/03 10:44:38;;;;;;;10.43;2.15;;;;;;;;;;5023965;28;20033;-65
2022/09/03 10:47:14;;;;;;;13.02;2.45;;;;;;;;;;5024803;28;20021;-65
2022/09/03 10:49:42;;;;;;;;;;;;;;;;;;5025565;28;20037;-66
2022/09/03 10:52:17;;;;;;;12.57;2.67;;;;;;;;;;5028229;28;20197;-65
2022/09/03 10:54:55;;;;;;;17.10;2.75;;;;;;;;;;5029779;28;20587;-65
2022/09/03 10:57:24;;;;;;;11.38;2.47;;;;;;;;;;5021767;28;20037;-65
2022/09/03 10:59:53;;;;;;;12.45;2.67;;;;;;;;;;5022958;28;20033;-65
2022/09/03 11:02:39;;;;;;;10.73;2.50;;;;;;;;;;5020865;28;20079;-66
2022/09/03 11:05:15;;;;;;;14.80;2.55;;;;;;;;;;5029317;28;20036;-66
2022/09/03 11:07:59;;;;;;;13.98;2.72;;;;;;;;;;5032956;28;20029;-67
2022/09/03 11:10:30;;;;;;;12.77;2.55;;;;;;;;;;5033586;28;20033;-67
2022/09/03 11:13:06;;;;;;;14.35;2.55;;;;;;;;;;5032399;28;20530;-67
2022/09/03 11:15:53;;;;;;;13.32;2.70;;;;;;;;;;5033432;28;20024;-66
2022/09/03 11:18:27;;;;;;;14.57;2.78;;;;;;;;;;5026773;28;20055;-66
2022/09/03 11:20:59;;;;;;;13.50;2.93;;;;;;;;;;5028356;28;20129;-67
2022/09/03 11:23:26;;;;;;;15.68;3.00;;;;;;;;;;5033870;28;20502;-66
2022/09/03 11:25:54;;;;;;;12.73;2.67;;;;;;;;;;5034422;28;20059;-68
2022/09/03 11:28:20;;;;;;;12.43;2.53;;;;;;;;;;5015808;28;20097;-66
2022/09/03 11:31:02;;;;;;;13.50;2.83;;;;;;;;;;5033520;28;20032;-67
2022/09/03 11:33:29;;;;;;;17.02;3.35;;;;;;;;;;5030530;28;20032;-66
2022/09/03 11:35:59;;;;;;;16.70;3.75;;;;;;;;;;5028830;28;20040;-66
2022/09/03 11:38:29;;;;;;;16.77;3.67;;;;;;;;;;5030030;28;20162;-67
2022/09/03 11:40:59;;;;;;;15.50;3.03;;;;;;;;;;5011298;28;20442;-66
2022/09/03 11:43:26;;;;;;;14.25;3.22;;;;;;;;;;5028203;28;20069;-67
2022/09/03 11:46:03;;;;;;;13.25;3.25;;;;;;;;;;5006158;28;20029;-67
2022/09/03 11:48:29;;;;;;;14.07;3.30;;;;;;;;;;5029814;28;20036;-67
2022/09/03 11:50:56;;;;;;;16.45;2.88;;;;;;;;;;5021584;28;20545;-67
2022/09/03 11:53:24;;;;;;;16.58;3.17;;;;;;;;;;5030614;28;20045;-67
2022/09/03 11:55:52;;;;;;;12.57;2.88;;;;;;;;;;5027698;28;20143;-66
2022/09/03 11:58:32;;;;;;;11.15;2.85;;;;;;;;;;5033483;28;20523;-66
2022/09/03 12:01:00;;;;;;;13.73;2.85;;;;;;;;;;5021553;28;20123;-67
2022/09/03 12:03:41;;;;;;;13.82;3.10;;;;;;;;;;5028299;28;20226;-67
2022/09/03 12:06:27;;;;;;;15.38;3.10;;;;;;;;;;5027020;28;20534;-67
2022/09/03 12:09:02;;;;;;;17.15;3.30;;;;;;;;;;5010732;28;20028;-68
2022/09/03 12:11:40;;;;;;;13.32;2.97;;;;;;;;;;5033450;28;20036;-66
2022/09/03 12:14:18;;;;;;;13.15;3.47;;;;;;;;;;5029397;28;20560;-67
2022/09/03 12:17:02;;;;;;;15.07;3.25;;;;;;;;;;5022975;28;20029;-66
2022/09/03 12:19:37;;;;;;;17.10;3.20;;;;;;;;;;5008302;28;20029;-66
2022/09/03 12:22:04;;;;;;;15.15;2.97;;;;;;;;;;5020529;28;20033;-66
2022/09/03 12:24:32;;;;;;;14.05;2.80;;;;;;;;;;5026851;28;20036;-66
2022/09/03 12:26:59;;;;;;;11.93;2.58;;;;;;;;;;5029133;28;20797;-66
2022/09/03 12:29:27;;;;;;;16.92;2.72;;;;;;;;;;5027853;28;20074;-67
2022/09/03 12:31:55;;;;;;;18.83;3.28;;;;;;;;;;5032297;28;20028;-66
2022/09/03 12:34:22;;;;;;;12.18;2.63;;;;;;;;;;5031498;28;20029;-66
2022/09/03 12:36:51;;;;;;;11.68;2.67;;;;;;;;;;5023428;28;20017;-66
2022/09/03 12:39:28;;;;;;;13.73;2.60;;;;;;;;;;5030747;28;20653;-66
2022/09/03 12:41:54;;;;;;;12.73;2.80;;;;;;;;;;5007940;28;20509;-66
2022/09/03 12:44:31;;;;;;;12.80;2.58;;;;;;;;;;5008887;28;20497;-67
2022/09/03 12:47:01;;;;;;;15.23;3.13;;;;;;;;;;5024515;28;20083;-67
2022/09/03 12:49:27;;;;;;;11.55;2.60;;;;;;;;;;5026863;28;20032;-67
2022/09/03 12:51:59;;;;;;;13.40;2.70;;;;;;;;;;5008817;28;20049;-67
2022/09/03 12:54:26;;;;;;;15.98;3.05;;;;;;;;;;5022379;28;20362;-67
2022/09/03 12:56:57;;;;;;;20.65;3.08;;;;;;;;;;5027912;28;20028;-67
2022/09/03 12:59:24;;;;;;;14.18;3.10;;;;;;;;;;5028348;28;20029;-67
2022/09/03 13:01:52;;;;;;;13.32;3.05;;;;;;;;;;5009710;28;20058;-67
2022/09/03 13:04:21;;;;;;;10.75;2.70;;;;;;;;;;5035408;28;20036;-67
2022/09/03 13:06:50;;;;;;;12.57;2.75;;;;;;;;;;5033298;28;20032;-67
2022/09/03 13:09:20;;;;;;;11.82;2.78;;;;;;;;;;5038653;28;20036;-68
2022/09/03 13:11:46;;;;;;;11.30;2.47;;;;;;;;;;5036501;28;20033;-67
2022/09/03 13:14:13;;;;;;;9.93;2.20;;;;;;;;;;5038841;28;20556;-67
2022/09/03 13:16:42;;;;;;;9.50;2.10;;;;;;;;;;5031989;28;20024;-66
2022/09/03 13:19:12;;;;;;;10.52;2.10;;;;;;;;;;5033375;28;20037;-67
2022/09/03 13:21:57;;;;;;;11.27;2.20;;;;;;;;;;5014837;28;20385;-67
2022/09/03 13:24:24;;;;;;;8.95;2.15;;;;;;;;;;5018303;28;20036;-66
2022/09/03 13:26:50;;;;;;;10.60;2.45;;;;;;;;;;5016756;28;20109;-66
2022/09/03 13:29:17;;;;;;;11.90;2.40;;;;;;;;;;5014254;28;20064;-67
2022/09/03 13:31:49;;;;;;;13.20;2.53;;;;;;;;;;5035181;28;20028;-67
2022/09/03 13:34:20;;;;;;;13.93;2.72;;;;;;;;;;5032375;28;20445;-67
2022/09/03 13:36:46;;;;;;;12.82;2.78;;;;;;;;;;5028412;28;20565;-66
2022/09/03 13:39:21;;;;;;;14.32;2.90;;;;;;;;;;5023897;28;20119;-66
2022/09/03 13:41:54;;;;;;;12.77;2.58;;;;;;;;;;5026895;28;20111;-67
2022/09/03 13:44:23;;;;;;;14.43;3.08;;;;;;;;;;5030934;28;20433;-66
2022/09/03 13:47:00;;;;;;;16.08;3.03;;;;;;;;;;5029155;28;20033;-67
2022/09/03 13:52:34;;;;;;;18.20;3.63;;;;;;;;;;5027588;28;20048;-67
2022/09/03 13:55:06;;;;;;;24.27;7.82;;;;;;;;;;5024854;28;20150;-67
2022/09/03 13:57:39;;;;;;;13.82;2.80;;;;;;;;;;5037165;28;20028;-67
2022/09/03 14:00:09;;;;;;;16.08;2.70;;;;;;;;;;5033411;28;20041;-67
2022/09/03 14:02:55;;;;;;;16.27;3.22;;;;;;;;;;5007609;28;20414;-68
2022/09/03 14:05:38;;;;;;;14.68;2.72;;;;;;;;;;5011313;28;20043;-67
2022/09/03 14:08:08;;;;;;;13.75;2.92;;;;;;;;;;5001222;28;20139;-68
2022/09/03 14:10:53;;;;;;;12.55;2.60;;;;;;;;;;5030397;28;20037;-67
2022/09/03 14:13:31;;;;;;;17.58;3.17;;;;;;;;;;5030973;28;20040;-67
2022/09/03 14:16:04;;;;;;;16.60;3.33;;;;;;;;;;5025843;28;20137;-68
2022/09/03 14:18:42;;;;;;;12.40;2.60;;;;;;;;;;5030638;28;20021;-68
2022/09/03 14:21:24;;;;;;;16.13;3.50;;;;;;;;;;5009419;28;20753;-67
2022/09/03 14:23:56;;;;;;;15.10;2.97;;;;;;;;;;5022062;28;20032;-67
2022/09/03 14:26:33;;;;;;;13.63;2.60;;;;;;;;;;5035237;28;20654;-67
2022/09/03 14:29:18;;;;;;;12.68;2.35;;;;;;;;;;5007993;28;20142;-67
2022/09/03 14:32:02;;;;;;;11.60;2.42;;;;;;;;;;5027343;28;20024;-67
2022/09/03 14:34:29;;;;;;;10.85;1.60;;;;;;;;;;5031915;28;20029;-67
2022/09/03 14:37:08;;;;;;;16.52;2.00;;;;;;;;;;5028474;28;20029;-67
2022/09/03 14:39:53;;;;;;;10.35;2.58;;;;;;;;;;5026031;28;20120;-66
2022/09/03 14:42:32;;;;;;;12.40;1.90;;;;;;;;;;5030614;28;20033;-67
2022/09/03 14:45:11;;;;;;;13.68;2.58;;;;;;;;;;5024298;28;20451;-67
2022/09/03 14:47:44;;;;;;;15.23;2.65;;;;;;;;;;5007349;28;20441;-67
2022/09/03 14:50:22;;;;;;;15.35;2.60;;;;;;;;;;5026369;28;20036;-66
2022/09/03 14:52:51;;;;;;;12.55;2.30;;;;;;;;;;5020515;28;20439;-67
2022/09/03 14:55:29;;;;;;;12.77;2.33;;;;;;;;;;5028279;28;20206;-66
2022/09/03 14:58:02;;;;;;;14.43;2.80;;;;;;;;;;5027059;28;20468;-66